RCTP/TPE METAR and TAF weather

Enter ICAO airport designator
Station Type Date Time Source
RCTP METAR 2021/01/17 18:30 UTC NOAA

RCTP 171830Z 06014KT 9999 FEW010 SCT022 BKN035 13/07 Q1024 NOSIG RMK A3025


Station Type Date Time Source
RCTP Decoded METAR 2021/01/17 18:30 UTC NOAA

Chiang Kai Shek, Taiwan (RCTP) 25-05N 121-13E
Jan 17, 2021 - 01:30 PM EST / 2021.01.17 1830 UTC
Wind: from the ENE (060 degrees) at 16 MPH (14 KT):0
Visibility: greater than 7 mile(s):0
Sky conditions: mostly cloudy
Temperature: 55 F (13 C)
Dew Point: 44 F (7 C)
Relative Humidity: 66%
Pressure (altimeter): 30.24 in. Hg (1024 hPa)
ob: RCTP 171830Z 06014KT 9999 FEW010 SCT022 BKN035 13/07 Q1024 NOSIG RMK A3025
cycle: 18

Station Type Date Time Source
RCTP TAF 2021/01/17 18:05 UTC NOAA

TAF RCTP 171700Z 1718/1824 05017KT 9999 FEW010 SCT022 BKN032
TEMPO 1718/1724 07012KT FEW008 BKN020 BKN050
BECMG 1814/1816 06012KT

Example: see airport list